Skip Navigation LinksHome page > Weather > Current weather Skip Navigation Links

Current Weather

Middle Wallop, United Kingdom

For information only: do not use for flight planning or navigation.
Latest weather
Observation time Tuesday, October 19, 2021 8:50 PM BST
Local time Tuesday, October 19, 2021 10:04 PM BST
Flight conditions Instrument Meteorological Conditions
Winds
Wind direction South-Southwest (210°)
Wind speed 13 mph
Visibility 2.5 mi.
Present weather light rain
Sky condition
Ceiling 600 ft. broken clouds
Cloud layer broken clouds 600 ft.
Cloud layer broken clouds 1,200 ft.
Temperature 61°F
Dewpoint 61°F
Altimeter 29.77 in.Hg
Derived measurements
Relative humidity 100%
Density altitude 638 ft.
Remarks
Fully automated report.
METAR EGVP 191950Z AUTO 21011KT 4100 -RA BKN006/// BKN012/// 16/16 Q1008

Settings

Location code

InnerDrive.Weather 4.0.6770.0 Release CLR 4.0.30319.42000
Copyright ©2018 Inner Drive Technology. All rights reserved. Portions Copyright ©1986-2018 David Braverman.

Find weather

Site navigation


Skip Navigation Links

Place info

Page info

PayPal - The safer, easier way to pay online!

Return home.

Copyright ©2021 Inner Drive Technology. Purveyors of fine, hand-crafted computer software. Page printed 2021-10-19T21:04:45 UTC.